createdAt,value
2019-04-10T00:02:13.629Z,73.73
2019-04-10T00:04:43.249Z,75.53
2019-04-10T00:07:15.125Z,73.73
2019-04-10T00:09:43.366Z,69.03
2019-04-10T00:12:12.173Z,67.07
2019-04-10T00:14:41.030Z,70.77
2019-04-10T00:17:09.645Z,71.13
2019-04-10T00:19:38.224Z,71.27
2019-04-10T00:22:06.568Z,70.03
2019-04-10T00:24:34.464Z,69.60
2019-04-10T00:27:04.077Z,67.17
2019-04-10T00:29:32.341Z,71.07
2019-04-10T00:32:02.191Z,69.13
2019-04-10T00:34:31.848Z,66.07
2019-04-10T00:36:59.774Z,66.87
2019-04-10T00:39:28.675Z,65.70
2019-04-10T00:41:57.373Z,62.90
2019-04-10T00:44:25.900Z,59.70
2019-04-10T00:46:54.834Z,61.03
2019-04-10T00:49:23.943Z,59.13
2019-04-10T00:51:52.178Z,57.57
2019-04-10T00:54:21.694Z,58.63
2019-04-10T00:56:50.592Z,58.37
2019-04-10T00:59:19.936Z,56.87
2019-04-10T01:01:48.629Z,63.17
2019-04-10T01:04:16.926Z,57.50
2019-04-10T01:06:45.009Z,60.53
2019-04-10T01:09:13.208Z,61.97
2019-04-10T01:11:41.480Z,60.13
2019-04-10T01:14:09.705Z,59.50
2019-04-10T01:16:37.840Z,59.80
2019-04-10T01:19:06.050Z,56.47
2019-04-10T01:21:34.630Z,57.43
2019-04-10T01:24:03.607Z,63.90
2019-04-10T01:26:32.309Z,58.83
2019-04-10T01:29:01.109Z,61.17
2019-04-10T01:31:29.721Z,60.97
2019-04-10T01:33:58.591Z,56.47
2019-04-10T01:36:27.089Z,59.10
2019-04-10T01:38:55.433Z,57.23
2019-04-10T01:41:23.944Z,56.53
2019-04-10T01:43:52.259Z,56.70
2019-04-10T01:46:20.941Z,55.03
2019-04-10T01:48:49.272Z,56.97
2019-04-10T01:51:17.900Z,58.80
2019-04-10T01:53:46.656Z,59.40
2019-04-10T01:56:22.024Z,58.60
2019-04-10T01:58:47.682Z,60.83
2019-04-10T02:01:22.454Z,61.27
2019-04-10T02:03:50.007Z,61.87
2019-04-10T02:06:18.901Z,65.40
2019-04-10T02:08:47.809Z,60.27
2019-04-10T02:11:15.893Z,66.77
2019-04-10T02:13:44.586Z,69.17
2019-04-10T02:16:12.225Z,68.97
2019-04-10T02:18:40.134Z,69.30
2019-04-10T02:21:07.966Z,67.83
2019-04-10T02:23:36.481Z,65.37
2019-04-10T02:26:07.440Z,70.23
2019-04-10T02:28:36.194Z,62.93
2019-04-10T02:31:04.903Z,64.43
2019-04-10T02:33:33.727Z,63.40
2019-04-10T02:36:03.745Z,61.20
2019-04-10T02:38:48.942Z,61.83
2019-04-10T02:41:03.493Z,60.97
2019-04-10T02:43:31.661Z,66.67
2019-04-10T02:46:01.997Z,62.87
2019-04-10T02:48:31.909Z,65.00
2019-04-10T02:51:01.869Z,61.53
2019-04-10T02:53:31.561Z,61.73
2019-04-10T02:56:00.520Z,60.77
2019-04-10T02:58:29.929Z,60.63
2019-04-10T03:00:59.089Z,59.93
2019-04-10T03:03:27.639Z,58.87
2019-04-10T03:05:56.587Z,58.63
2019-04-10T03:08:43.094Z,56.93
2019-04-10T03:11:01.670Z,55.90
2019-04-10T03:13:29.484Z,55.10
2019-04-10T03:16:00.006Z,55.63
2019-04-10T03:18:28.862Z,54.80
2019-04-10T03:20:56.468Z,52.47
2019-04-10T03:23:25.201Z,54.27
2019-04-10T03:25:53.614Z,53.67
2019-04-10T03:28:22.967Z,57.90
2019-04-10T03:30:50.984Z,55.80
2019-04-10T03:33:33.107Z,57.70
2019-04-10T03:36:00.601Z,56.97
2019-04-10T03:38:29.938Z,56.70
2019-04-10T03:40:58.778Z,58.03
2019-04-10T03:43:27.893Z,58.87
2019-04-10T03:45:57.132Z,63.03
2019-04-10T03:48:25.444Z,57.67
2019-04-10T03:50:54.293Z,66.23
2019-04-10T03:53:23.247Z,61.60
2019-04-10T03:55:53.645Z,61.97
2019-04-10T03:58:23.130Z,64.93
2019-04-10T04:00:52.205Z,62.50
2019-04-10T04:03:20.739Z,63.10
2019-04-10T04:05:49.064Z,64.97
2019-04-10T04:08:17.635Z,66.90
2019-04-10T04:10:46.024Z,66.83
2019-04-10T04:13:15.279Z,91.63
2019-04-10T04:15:44.415Z,71.17
2019-04-10T04:18:13.011Z,67.47
2019-04-10T04:20:41.266Z,73.33
2019-04-10T04:23:09.717Z,74.37
2019-04-10T04:25:38.672Z,69.57
2019-04-10T04:28:07.032Z,71.77
2019-04-10T04:30:36.036Z,76.40
2019-04-10T04:33:04.778Z,76.37
2019-04-10T04:35:34.513Z,79.23
2019-04-10T04:38:03.373Z,72.47
2019-04-10T04:40:31.710Z,76.77
2019-04-10T04:43:00.199Z,75.40
2019-04-10T04:45:29.707Z,77.53
2019-04-10T04:47:58.240Z,75.80
2019-04-10T04:50:27.067Z,78.40
2019-04-10T04:52:55.314Z,76.43
2019-04-10T04:55:23.687Z,79.40
2019-04-10T04:57:53.380Z,76.83
2019-04-10T05:00:23.657Z,80.43
2019-04-10T05:02:52.287Z,73.57
2019-04-10T05:05:20.962Z,76.47
2019-04-10T05:07:57.166Z,74.47
2019-04-10T05:10:19.231Z,76.20
2019-04-10T05:12:47.921Z,75.77
2019-04-10T05:15:16.414Z,74.37
2019-04-10T05:17:45.029Z,74.07
2019-04-10T05:20:13.425Z,72.13
2019-04-10T05:22:41.678Z,71.07
2019-04-10T05:25:11.142Z,74.60
2019-04-10T05:27:39.791Z,76.17
2019-04-10T05:30:08.497Z,74.57
2019-04-10T05:32:37.558Z,79.37
2019-04-10T05:35:08.105Z,80.17
2019-04-10T05:37:35.911Z,76.50
2019-04-10T05:40:05.520Z,82.47
2019-04-10T05:42:35.199Z,78.70
2019-04-10T05:45:03.315Z,78.97
2019-04-10T05:47:32.394Z,75.10
2019-04-10T05:50:00.534Z,76.27
2019-04-10T05:52:28.922Z,76.77
2019-04-10T05:54:57.808Z,71.17
2019-04-10T05:57:26.791Z,66.27
2019-04-10T05:59:54.701Z,60.87
2019-04-10T06:02:23.279Z,61.17
2019-04-10T06:04:51.851Z,53.70
2019-04-10T06:07:21.139Z,53.03
2019-04-10T06:09:55.831Z,51.27
2019-04-10T06:12:20.336Z,51.27
2019-04-10T06:14:48.741Z,50.83
2019-04-10T06:17:16.502Z,50.20
2019-04-10T06:19:45.455Z,48.03
2019-04-10T06:22:14.600Z,51.57
2019-04-10T06:24:43.198Z,58.00
2019-04-10T06:27:12.241Z,55.87
2019-04-10T06:29:41.319Z,62.10
2019-04-10T06:32:09.656Z,62.83
2019-04-10T06:34:39.304Z,63.77
2019-04-10T06:37:08.447Z,61.57
2019-04-10T06:39:37.214Z,63.97
2019-04-10T06:42:06.615Z,66.40
2019-04-10T06:44:36.303Z,63.47
2019-04-10T06:47:04.448Z,62.40
2019-04-10T06:49:33.210Z,60.10
2019-04-10T06:52:01.935Z,59.57
2019-04-10T06:54:30.987Z,55.70
2019-04-10T06:57:00.647Z,61.70
2019-04-10T06:59:30.469Z,62.50
2019-04-10T07:02:13.126Z,61.13
2019-04-10T07:04:41.457Z,63.07
2019-04-10T07:07:06.294Z,64.10
2019-04-10T07:09:30.365Z,64.07
2019-04-10T07:12:01.366Z,63.80
2019-04-10T07:14:29.190Z,74.23
2019-04-10T07:17:00.682Z,84.27
2019-04-10T07:19:28.151Z,122.57
2019-04-10T07:21:58.963Z,101.63
2019-04-10T07:24:27.111Z,81.77
2019-04-10T07:27:00.209Z,81.27
2019-04-10T07:29:27.728Z,79.57
2019-04-10T07:31:56.043Z,78.53
2019-04-10T07:34:26.949Z,82.27
2019-04-10T07:36:55.982Z,80.20
2019-04-10T07:39:28.066Z,85.70
2019-04-10T07:41:55.740Z,83.90
2019-04-10T07:44:24.022Z,80.33
2019-04-10T07:46:53.270Z,76.83
2019-04-10T07:49:22.112Z,74.53
2019-04-10T07:51:51.935Z,78.63
2019-04-10T07:54:21.324Z,81.03
2019-04-10T07:56:51.499Z,89.83
2019-04-10T07:59:20.564Z,77.97
2019-04-10T08:01:49.494Z,79.77
2019-04-10T08:04:18.320Z,77.57
2019-04-10T08:06:46.845Z,80.20
2019-04-10T08:09:15.296Z,82.93
2019-04-10T08:11:43.330Z,80.13
2019-04-10T08:14:12.656Z,76.07
2019-04-10T08:16:41.431Z,74.27
2019-04-10T08:19:10.391Z,77.93
2019-04-10T08:21:38.711Z,80.73
2019-04-10T08:24:07.454Z,72.80
2019-04-10T08:26:36.670Z,77.80
2019-04-10T08:29:05.630Z,83.47
2019-04-10T08:31:34.045Z,80.37
2019-04-10T08:34:03.195Z,79.27
2019-04-10T08:36:31.895Z,78.60
2019-04-10T08:39:00.309Z,85.93
2019-04-10T08:41:29.661Z,78.27
2019-04-10T08:43:58.901Z,81.60
2019-04-10T08:46:28.149Z,80.93
2019-04-10T08:48:58.003Z,75.73
2019-04-10T08:51:27.585Z,77.40
2019-04-10T08:53:56.845Z,90.97
2019-04-10T08:56:24.847Z,80.30
2019-04-10T08:58:52.802Z,82.57
2019-04-10T09:01:20.994Z,84.53
2019-04-10T09:03:49.152Z,82.33
2019-04-10T09:06:17.893Z,86.27
2019-04-10T09:08:46.552Z,85.10
2019-04-10T09:11:18.537Z,88.23
2019-04-10T09:13:46.415Z,88.67
2019-04-10T09:16:14.368Z,85.77
2019-04-10T09:18:42.630Z,85.43
2019-04-10T09:21:11.181Z,85.67
2019-04-10T09:23:45.604Z,85.37
2019-04-10T09:26:09.360Z,90.47
2019-04-10T09:28:38.203Z,86.33
2019-04-10T09:31:07.278Z,88.17
2019-04-10T09:33:36.946Z,86.37
2019-04-10T09:36:05.220Z,88.33
2019-04-10T09:38:34.778Z,88.23
2019-04-10T09:41:03.733Z,88.20
2019-04-10T09:43:34.115Z,86.70
2019-04-10T09:46:02.292Z,88.33
2019-04-10T09:48:35.768Z,87.43
2019-04-10T09:51:05.472Z,85.03
2019-04-10T09:53:34.971Z,86.63
2019-04-10T09:56:03.191Z,89.57
2019-04-10T09:58:31.845Z,90.47
2019-04-10T10:01:02.982Z,86.23
2019-04-10T10:03:34.586Z,88.93
2019-04-10T10:06:03.603Z,86.37
2019-04-10T10:08:31.973Z,89.17
2019-04-10T10:11:00.398Z,94.03
2019-04-10T10:13:28.346Z,91.10
2019-04-10T10:15:57.121Z,91.47
2019-04-10T10:18:25.891Z,92.87
2019-04-10T10:20:55.060Z,94.03
2019-04-10T10:23:22.911Z,91.33
2019-04-10T10:25:51.176Z,117.17
2019-04-10T10:28:19.429Z,115.97
2019-04-10T10:30:49.369Z,90.23
2019-04-10T10:33:17.733Z,89.63
2019-04-10T10:35:47.490Z,89.57
2019-04-10T10:38:15.851Z,97.17
2019-04-10T10:40:46.240Z,94.23
2019-04-10T10:43:13.766Z,96.87
2019-04-10T10:45:42.943Z,95.73
2019-04-10T10:48:11.602Z,91.37
2019-04-10T10:50:39.834Z,92.13
2019-04-10T10:53:08.175Z,96.60
2019-04-10T10:55:36.452Z,88.07
2019-04-10T10:58:03.959Z,90.23
2019-04-10T11:00:33.423Z,89.80
2019-04-10T11:03:03.652Z,88.80
2019-04-10T11:05:33.270Z,91.57
2019-04-10T11:08:02.791Z,92.83
2019-04-10T11:10:31.446Z,89.93
2019-04-10T11:13:00.071Z,87.30
2019-04-10T11:15:28.962Z,83.13
2019-04-10T11:17:57.845Z,88.47
2019-04-10T11:20:26.127Z,82.00
2019-04-10T11:22:55.818Z,86.33
2019-04-10T11:25:26.038Z,82.47
2019-04-10T11:27:54.339Z,78.97
2019-04-10T11:30:22.741Z,83.07
2019-04-10T11:32:52.436Z,83.73
2019-04-10T11:35:24.283Z,82.90
2019-04-10T11:37:56.174Z,84.23
2019-04-10T11:40:26.418Z,81.53
2019-04-10T11:42:55.443Z,85.70
2019-04-10T11:45:26.152Z,82.87
2019-04-10T11:47:56.453Z,82.63
2019-04-10T11:50:25.647Z,78.07
2019-04-10T11:52:56.742Z,84.00
2019-04-10T11:57:54.710Z,91.03
2019-04-10T12:00:45.286Z,87.33
2019-04-10T12:03:10.200Z,90.33
2019-04-10T12:08:32.384Z,89.00
2019-04-10T12:13:10.843Z,91.17
2019-04-10T12:15:38.777Z,92.67
2019-04-10T12:18:06.861Z,96.27
2019-04-10T12:20:35.482Z,95.87
2019-04-10T12:23:04.873Z,91.57
2019-04-10T12:25:34.728Z,99.10
2019-04-10T12:28:03.662Z,97.03
2019-04-10T12:30:32.199Z,98.00
2019-04-10T12:33:01.083Z,99.97
2019-04-10T12:35:31.938Z,94.43
2019-04-10T12:38:06.291Z,95.90
2019-04-10T12:40:30.838Z,103.80
2019-04-10T12:42:58.848Z,97.87
2019-04-10T12:45:27.084Z,109.10
2019-04-10T12:47:56.529Z,105.60
2019-04-10T12:50:24.932Z,103.87
2019-04-10T12:52:52.737Z,101.70
2019-04-10T12:55:22.556Z,95.50
2019-04-10T12:57:51.134Z,88.50
2019-04-10T13:00:25.704Z,89.77
2019-04-10T13:02:54.560Z,91.83
2019-04-10T13:05:22.536Z,90.73
2019-04-10T13:07:51.899Z,89.97
2019-04-10T13:10:20.604Z,81.80
2019-04-10T13:12:49.327Z,85.67
2019-04-10T13:15:19.206Z,85.40
2019-04-10T13:17:47.709Z,85.63
2019-04-10T13:20:17.672Z,85.53
2019-04-10T13:22:46.447Z,85.00
2019-04-10T13:25:16.295Z,82.57
2019-04-10T13:27:45.203Z,86.60
2019-04-10T13:30:14.689Z,87.67
2019-04-10T13:32:42.962Z,84.97
2019-04-10T13:35:11.660Z,81.70
2019-04-10T13:37:41.439Z,85.00
2019-04-10T13:40:11.133Z,85.80
2019-04-10T13:42:41.071Z,90.67
2019-04-10T13:45:10.845Z,90.03
2019-04-10T13:47:42.792Z,93.50
2019-04-10T13:50:12.720Z,92.80
2019-04-10T13:52:42.684Z,91.10
2019-04-10T13:55:11.684Z,94.57
2019-04-10T13:57:39.752Z,89.50
2019-04-10T14:00:11.626Z,89.37
2019-04-10T14:02:40.102Z,93.20
2019-04-10T14:05:11.611Z,89.73
2019-04-10T14:07:40.182Z,90.00
2019-04-10T14:10:10.577Z,93.53
2019-04-10T14:12:39.098Z,89.47
2019-04-10T14:15:07.795Z,89.90
2019-04-10T14:17:35.661Z,96.43
2019-04-10T14:20:04.735Z,97.10
2019-04-10T14:22:35.173Z,94.37
2019-04-10T14:25:03.154Z,92.27
2019-04-10T14:27:32.085Z,98.40
2019-04-10T14:30:00.823Z,96.60
2019-04-10T14:32:35.526Z,97.97
2019-04-10T14:35:05.652Z,98.13
2019-04-10T14:37:34.234Z,100.07
2019-04-10T14:40:02.558Z,101.60
2019-04-10T14:42:31.175Z,101.60
2019-04-10T14:44:59.371Z,98.30
2019-04-10T14:47:29.694Z,94.57
2019-04-10T14:49:59.567Z,99.73
2019-04-10T14:52:29.245Z,99.93
2019-04-10T14:54:58.013Z,100.20
2019-04-10T14:57:27.221Z,96.33
2019-04-10T14:59:56.041Z,93.33
2019-04-10T15:02:24.461Z,93.63
2019-04-10T15:04:53.195Z,91.97
2019-04-10T15:07:21.842Z,89.93
2019-04-10T15:09:50.367Z,94.67
2019-04-10T15:12:18.641Z,89.97
2019-04-10T15:14:48.202Z,92.47
2019-04-10T15:17:18.923Z,94.03
2019-04-10T15:19:49.823Z,94.43
2019-04-10T15:22:17.828Z,91.07
2019-04-10T15:24:51.905Z,95.83
2019-04-10T15:27:19.605Z,94.60
2019-04-10T15:29:47.539Z,96.67
2019-04-10T15:32:16.758Z,106.43
2019-04-10T15:34:46.021Z,99.80
2019-04-10T15:37:15.196Z,94.67
2019-04-10T15:39:44.869Z,96.10
2019-04-10T15:42:14.234Z,94.47
2019-04-10T15:44:42.825Z,96.57
2019-04-10T15:47:18.348Z,95.37
2019-04-10T15:49:43.281Z,92.27
2019-04-10T15:52:12.112Z,97.70
2019-04-10T15:54:40.484Z,101.63
2019-04-10T15:57:09.018Z,91.17
2019-04-10T15:59:38.734Z,89.83
2019-04-10T16:02:07.792Z,90.03
2019-04-10T16:04:36.559Z,84.37
2019-04-10T16:07:04.744Z,83.10
2019-04-10T16:09:44.893Z,81.27
2019-04-10T16:12:14.960Z,82.73
2019-04-10T16:14:44.320Z,82.10
2019-04-10T16:17:35.192Z,86.60
2019-04-10T16:20:35.197Z,92.97
2019-04-10T16:23:33.414Z,84.63
2019-04-10T16:26:02.880Z,80.80
2019-04-10T16:28:31.457Z,71.30
2019-04-10T16:31:01.327Z,77.57
2019-04-10T16:33:30.007Z,73.67
2019-04-10T16:35:59.048Z,74.40
2019-04-10T16:38:28.640Z,72.40
2019-04-10T16:40:59.007Z,66.43
2019-04-10T16:43:28.579Z,73.93
2019-04-10T16:45:57.291Z,76.40
2019-04-10T16:48:28.138Z,78.60
2019-04-10T16:50:56.968Z,75.20
2019-04-10T16:53:29.838Z,74.60
2019-04-10T16:55:59.331Z,70.90
2019-04-10T16:58:27.967Z,67.67
2019-04-10T17:00:56.394Z,69.67
2019-04-10T17:03:27.527Z,71.03
2019-04-10T17:05:55.806Z,71.20
2019-04-10T17:08:24.437Z,71.73
2019-04-10T17:10:53.729Z,66.97
2019-04-10T17:13:22.451Z,70.07
2019-04-10T17:15:51.768Z,70.20
2019-04-10T17:18:21.257Z,71.47
2019-04-10T17:20:50.967Z,73.03
2019-04-10T17:23:20.579Z,73.80
2019-04-10T17:25:49.082Z,73.20
2019-04-10T17:28:18.516Z,70.07
2019-04-10T17:30:47.247Z,71.50
2019-04-10T17:33:16.569Z,69.03
2019-04-10T17:35:45.865Z,71.87
2019-04-10T17:38:14.275Z,70.13
2019-04-10T17:40:50.643Z,71.37
2019-04-10T17:43:14.689Z,73.20
2019-04-10T17:45:42.988Z,68.77
2019-04-10T17:48:11.705Z,69.17
2019-04-10T17:50:39.873Z,72.43
2019-04-10T17:53:09.620Z,72.43
2019-04-10T17:55:38.359Z,75.43
2019-04-10T17:58:07.419Z,72.77
2019-04-10T18:00:39.870Z,69.63
2019-04-10T18:03:10.938Z,67.03
2019-04-10T18:05:39.953Z,66.63
2019-04-10T18:08:08.461Z,69.97
2019-04-10T18:10:44.675Z,65.97
2019-04-10T18:13:08.477Z,68.17
2019-04-10T18:15:36.466Z,67.47
2019-04-10T18:18:05.344Z,63.17
2019-04-10T18:20:36.056Z,67.47
2019-04-10T18:23:05.007Z,69.17
2019-04-10T18:25:34.025Z,69.10
2019-04-10T18:28:03.401Z,69.53
2019-04-10T18:30:33.970Z,67.83
2019-04-10T18:33:03.464Z,66.17
2019-04-10T18:35:33.654Z,65.00
2019-04-10T18:38:01.667Z,63.50
2019-04-10T18:40:31.675Z,64.97
2019-04-10T18:43:00.616Z,63.37
2019-04-10T18:45:30.926Z,66.47
2019-04-10T18:48:00.408Z,65.53
2019-04-10T18:50:28.924Z,67.23
2019-04-10T18:52:57.455Z,62.67
2019-04-10T18:55:26.204Z,60.87
2019-04-10T18:57:54.954Z,59.73
2019-04-10T19:00:42.812Z,59.67
2019-04-10T19:03:49.120Z,60.83
2019-04-10T19:06:16.345Z,57.77
2019-04-10T19:08:44.077Z,55.07
2019-04-10T19:11:21.169Z,57.80
2019-04-10T19:13:42.603Z,61.37
2019-04-10T19:16:10.953Z,63.13
2019-04-10T19:18:39.883Z,64.40
2019-04-10T19:21:09.749Z,66.13
2019-04-10T19:23:37.983Z,67.60
2019-04-10T19:26:09.517Z,68.70
2019-04-10T19:28:38.481Z,64.07
2019-04-10T19:31:18.904Z,64.10
2019-04-10T19:33:41.564Z,61.83
2019-04-10T19:36:09.820Z,59.23
2019-04-10T19:38:38.594Z,56.47
2019-04-10T19:41:20.035Z,57.70
2019-04-10T19:43:38.062Z,59.30
2019-04-10T19:46:08.534Z,57.70
2019-04-10T19:48:36.774Z,57.40
2019-04-10T19:51:05.802Z,57.10
2019-04-10T19:53:35.304Z,53.70
2019-04-10T19:56:04.454Z,53.50
2019-04-10T19:58:32.853Z,55.70
2019-04-10T20:01:03.245Z,53.23
2019-04-10T20:03:32.155Z,53.43
2019-04-10T20:06:01.194Z,53.03
2019-04-10T20:08:31.359Z,51.37
2019-04-10T20:11:00.336Z,52.57
2019-04-10T20:13:29.046Z,54.77
2019-04-10T20:15:58.621Z,51.47
2019-04-10T20:18:26.885Z,49.93
2019-04-10T20:20:55.504Z,49.77
2019-04-10T20:23:24.195Z,50.93
2019-04-10T20:25:52.957Z,49.27
2019-04-10T20:28:21.230Z,51.53
2019-04-10T20:30:52.316Z,49.27
2019-04-10T20:33:20.786Z,52.27
2019-04-10T20:35:48.953Z,51.07
2019-04-10T20:38:17.644Z,49.77
2019-04-10T20:40:46.397Z,51.07
2019-04-10T20:43:15.138Z,51.83
2019-04-10T20:45:43.408Z,50.90
2019-04-10T20:48:12.142Z,50.57
2019-04-10T20:50:41.779Z,50.30
2019-04-10T20:53:11.547Z,51.97
2019-04-10T20:55:40.308Z,50.70
2019-04-10T20:58:09.110Z,49.60
2019-04-10T21:00:40.872Z,51.60
2019-04-10T21:03:09.429Z,50.37
2019-04-10T21:05:37.941Z,50.10
2019-04-10T21:08:06.615Z,49.53
2019-04-10T21:10:35.574Z,48.50
2019-04-10T21:13:04.498Z,50.40
2019-04-10T21:15:33.413Z,49.40
2019-04-10T21:18:02.622Z,50.57
2019-04-10T21:20:32.405Z,51.80
2019-04-10T21:23:03.428Z,48.80
2019-04-10T21:25:31.583Z,46.57
2019-04-10T21:28:00.355Z,45.50
2019-04-10T21:30:54.920Z,48.40
2019-04-10T21:33:40.809Z,47.70
2019-04-10T21:36:09.669Z,46.53
2019-04-10T21:38:38.754Z,45.30
2019-04-10T21:41:08.756Z,46.37
2019-04-10T21:43:37.429Z,45.37
2019-04-10T21:46:06.169Z,45.30
2019-04-10T21:48:35.041Z,43.90
2019-04-10T21:51:04.568Z,44.20
2019-04-10T21:53:34.454Z,42.17
2019-04-10T21:56:04.112Z,44.90
2019-04-10T21:58:32.454Z,42.87
2019-04-10T22:01:03.626Z,41.50
2019-04-10T22:03:32.259Z,40.93
2019-04-10T22:06:15.704Z,39.80
2019-04-10T22:08:49.982Z,41.37
2019-04-10T22:11:19.146Z,41.27
2019-04-10T22:13:48.499Z,42.27
2019-04-10T22:16:18.494Z,43.13
2019-04-10T22:18:47.860Z,41.23
2019-04-10T22:21:16.588Z,45.13
2019-04-10T22:23:44.766Z,42.77
2019-04-10T22:26:13.811Z,39.83
2019-04-10T22:28:42.006Z,39.03
2019-04-10T22:31:11.667Z,38.07
2019-04-10T22:33:40.495Z,38.47
2019-04-10T22:36:08.731Z,37.50
2019-04-10T22:38:37.805Z,38.50
2019-04-10T22:41:19.778Z,39.43
2019-04-10T22:43:37.048Z,36.10
2019-04-10T22:46:05.687Z,37.13
2019-04-10T22:48:34.330Z,37.20
2019-04-10T22:51:03.392Z,37.07
2019-04-10T22:53:31.428Z,38.77
2019-04-10T22:56:00.441Z,38.07
2019-04-10T22:58:28.871Z,37.00
2019-04-10T23:00:57.989Z,34.27
2019-04-10T23:03:26.283Z,35.23
2019-04-10T23:05:54.207Z,35.90
2019-04-10T23:08:23.141Z,35.33
2019-04-10T23:10:51.154Z,34.90
2019-04-10T23:13:18.692Z,37.37
2019-04-10T23:15:47.389Z,36.17
2019-04-10T23:18:15.664Z,35.57
2019-04-10T23:20:43.938Z,34.90
2019-04-10T23:23:12.066Z,33.60
2019-04-10T23:25:40.545Z,36.00
2019-04-10T23:28:09.537Z,35.23
2019-04-10T23:30:39.220Z,36.47
2019-04-10T23:33:08.053Z,34.10
2019-04-10T23:35:35.979Z,33.80
2019-04-10T23:38:07.035Z,34.40
2019-04-10T23:40:35.034Z,35.37
2019-04-10T23:43:11.222Z,34.40
2019-04-10T23:45:33.567Z,34.93
2019-04-10T23:48:01.986Z,36.03
2019-04-10T23:50:30.357Z,35.50
2019-04-10T23:53:00.226Z,34.23
2019-04-10T23:55:30.120Z,34.90
2019-04-10T23:57:59.767Z,34.13
